Time;durP1;ratioP1;P1;durP2;ratioP2;P2;SDS_P1;SDS_P2;PMS_P1;PMS_P2;Temp;Humidity;BMP_temperature;BMP_pressure;BME280_temperature;BME280_humidity;BME280_pressure;Samples;Min_cycle;Max_cycle;Signal;HPM_P1;HPM_P2
2023/12/14 00:01:25;;;;;;;11.18;7.53;;;;;;;;;;5089708;28;20390;-72
2023/12/14 00:03:51;;;;;;;11.13;7.03;;;;;;;;;;5089358;28;20413;-72
2023/12/14 00:06:17;;;;;;;10.23;6.65;;;;;;;;;;5090024;28;20040;-72
2023/12/14 00:08:43;;;;;;;8.50;6.60;;;;;;;;;;5089849;28;20466;-72
2023/12/14 00:11:10;;;;;;;10.00;6.70;;;;;;;;;;5089423;28;20414;-72
2023/12/14 00:13:36;;;;;;;9.35;6.72;;;;;;;;;;5090041;28;20102;-72
2023/12/14 00:16:03;;;;;;;9.50;6.80;;;;;;;;;;5073115;28;20071;-72
2023/12/14 00:18:29;;;;;;;9.95;6.90;;;;;;;;;;5083622;28;20048;-72
2023/12/14 00:20:55;;;;;;;7.75;6.28;;;;;;;;;;5052656;28;20457;-72
2023/12/14 00:23:22;;;;;;;9.25;6.68;;;;;;;;;;5069501;28;20178;-72
2023/12/14 00:25:48;;;;;;;9.40;6.53;;;;;;;;;;5076852;28;20036;-72
2023/12/14 00:28:14;;;;;;;7.90;6.18;;;;;;;;;;5089657;28;20040;-72
2023/12/14 00:30:40;;;;;;;11.27;7.07;;;;;;;;;;5089815;28;20036;-72
2023/12/14 00:33:06;;;;;;;9.13;7.10;;;;;;;;;;5089419;28;20083;-72
2023/12/14 00:35:32;;;;;;;10.27;7.30;;;;;;;;;;5089518;28;20390;-72
2023/12/14 00:37:58;;;;;;;10.95;7.82;;;;;;;;;;5090993;28;20553;-72
2023/12/14 00:40:25;;;;;;;12.90;7.72;;;;;;;;;;5093267;28;20068;-72
2023/12/14 00:42:51;;;;;;;12.50;7.90;;;;;;;;;;5093455;28;20051;-72
2023/12/14 00:45:17;;;;;;;11.48;7.88;;;;;;;;;;5093285;28;20090;-72
2023/12/14 00:47:43;;;;;;;12.25;7.85;;;;;;;;;;5076179;28;20036;-72
2023/12/14 00:50:10;;;;;;;10.30;7.05;;;;;;;;;;5093380;28;20428;-72
2023/12/14 00:52:36;;;;;;;11.75;7.57;;;;;;;;;;5093428;28;20506;-72
2023/12/14 00:55:02;;;;;;;11.98;7.78;;;;;;;;;;5092874;28;20051;-72
2023/12/14 00:57:28;;;;;;;15.20;8.30;;;;;;;;;;5092875;28;20087;-72
2023/12/14 00:59:54;;;;;;;12.55;7.55;;;;;;;;;;5094599;28;20611;-72
2023/12/14 01:02:20;;;;;;;11.52;7.72;;;;;;;;;;5092546;28;20127;-72
2023/12/14 01:04:46;;;;;;;12.15;8.10;;;;;;;;;;5093208;28;20370;-72
2023/12/14 01:07:12;;;;;;;21.15;8.57;;;;;;;;;;5092983;28;20043;-72
2023/12/14 01:09:39;;;;;;;13.68;7.47;;;;;;;;;;5092383;28;20063;-72
2023/12/14 01:12:05;;;;;;;14.20;7.72;;;;;;;;;;5092871;28;20102;-72
2023/12/14 01:14:31;;;;;;;13.60;8.70;;;;;;;;;;5092955;28;20553;-72
2023/12/14 01:16:57;;;;;;;10.35;7.38;;;;;;;;;;5092697;28;20043;-72
2023/12/14 01:19:25;;;;;;;14.30;8.35;;;;;;;;;;5079236;28;20044;-72
2023/12/14 01:21:51;;;;;;;11.23;7.50;;;;;;;;;;5072559;28;20479;-72
2023/12/14 01:24:17;;;;;;;13.88;7.40;;;;;;;;;;5055357;28;20043;-72
2023/12/14 01:26:43;;;;;;;11.10;7.22;;;;;;;;;;5087933;28;20055;-72
2023/12/14 01:29:09;;;;;;;11.93;6.80;;;;;;;;;;5092545;28;20043;-72
2023/12/14 01:31:35;;;;;;;9.30;6.70;;;;;;;;;;5092458;28;20115;-72
2023/12/14 01:34:01;;;;;;;12.10;6.78;;;;;;;;;;5092439;28;20055;-72
2023/12/14 01:36:27;;;;;;;11.32;7.10;;;;;;;;;;5092434;28;20044;-72
2023/12/14 01:38:53;;;;;;;10.18;6.85;;;;;;;;;;5092054;28;20036;-72
2023/12/14 01:41:19;;;;;;;11.73;6.53;;;;;;;;;;5075753;28;20052;-72
2023/12/14 01:43:45;;;;;;;9.82;6.63;;;;;;;;;;5075395;28;20044;-72
2023/12/14 01:46:12;;;;;;;11.80;7.15;;;;;;;;;;5074913;28;20062;-72
2023/12/14 01:48:38;;;;;;;14.25;6.53;;;;;;;;;;5091865;28;20131;-72
2023/12/14 01:51:05;;;;;;;11.98;7.13;;;;;;;;;;5091634;28;20058;-72
2023/12/14 01:53:31;;;;;;;9.30;6.93;;;;;;;;;;5091990;28;20040;-72
2023/12/14 01:55:57;;;;;;;10.35;6.43;;;;;;;;;;5092081;28;20040;-72
2023/12/14 01:58:25;;;;;;;9.10;6.47;;;;;;;;;;5091723;28;20521;-72
2023/12/14 02:01:03;;;;;;;9.85;6.43;;;;;;;;;;5091607;28;20379;-72
2023/12/14 02:03:29;;;;;;;11.43;6.72;;;;;;;;;;5092114;28;20062;-72
2023/12/14 02:05:57;;;;;;;8.55;5.68;;;;;;;;;;5091850;28;20386;-72
2023/12/14 02:08:23;;;;;;;8.70;6.65;;;;;;;;;;5091362;28;20044;-72
2023/12/14 02:10:49;;;;;;;10.60;6.53;;;;;;;;;;5091795;28;20127;-72
2023/12/14 02:13:15;;;;;;;10.38;5.85;;;;;;;;;;5093034;28;20428;-72
2023/12/14 02:15:42;;;;;;;11.60;6.22;;;;;;;;;;5091379;28;20688;-72
2023/12/14 02:18:08;;;;;;;9.60;5.82;;;;;;;;;;5088958;28;20044;-72
2023/12/14 02:20:34;;;;;;;12.38;6.00;;;;;;;;;;5071348;28;20041;-72
2023/12/14 02:23:01;;;;;;;8.82;5.90;;;;;;;;;;5054548;28;20036;-72
2023/12/14 02:25:27;;;;;;;8.02;5.82;;;;;;;;;;5075996;28;20162;-72
2023/12/14 02:27:53;;;;;;;9.63;6.47;;;;;;;;;;5091126;28;20040;-72
2023/12/14 02:30:19;;;;;;;9.07;5.57;;;;;;;;;;5091112;28;20123;-72
2023/12/14 02:32:46;;;;;;;11.23;6.35;;;;;;;;;;5091924;28;20054;-72
2023/12/14 02:35:12;;;;;;;9.77;6.28;;;;;;;;;;5091308;28;20480;-72
2023/12/14 02:37:40;;;;;;;9.35;6.20;;;;;;;;;;5091040;28;20042;-72
2023/12/14 02:40:07;;;;;;;9.00;5.90;;;;;;;;;;5091105;28;20465;-72
2023/12/14 02:42:33;;;;;;;11.63;6.35;;;;;;;;;;5091233;28;20076;-72
2023/12/14 02:44:59;;;;;;;9.27;6.13;;;;;;;;;;5091036;28;20089;-72
2023/12/14 02:47:25;;;;;;;9.63;6.28;;;;;;;;;;5090733;28;20077;-72
2023/12/14 02:49:51;;;;;;;10.95;6.65;;;;;;;;;;5090770;28;20174;-72
2023/12/14 02:52:17;;;;;;;10.38;6.00;;;;;;;;;;5090860;28;20526;-72
2023/12/14 02:54:43;;;;;;;10.90;6.55;;;;;;;;;;5090654;28;20036;-72
2023/12/14 02:57:09;;;;;;;10.55;6.80;;;;;;;;;;5090590;28;20044;-72
2023/12/14 02:59:35;;;;;;;10.63;5.72;;;;;;;;;;5090455;28;20048;-72
2023/12/14 03:02:01;;;;;;;10.20;6.30;;;;;;;;;;5090672;28;20097;-72
2023/12/14 03:04:27;;;;;;;11.07;7.35;;;;;;;;;;5090717;28;20036;-72
2023/12/14 03:06:53;;;;;;;12.63;6.75;;;;;;;;;;5090931;28;20035;-72
2023/12/14 03:09:20;;;;;;;10.68;5.88;;;;;;;;;;5090193;28;20036;-72
2023/12/14 03:11:46;;;;;;;10.10;5.88;;;;;;;;;;5090792;28;20043;-72
2023/12/14 03:14:12;;;;;;;9.10;6.07;;;;;;;;;;5090831;28;20551;-72
2023/12/14 03:16:38;;;;;;;10.63;6.78;;;;;;;;;;5090122;28;20082;-72
2023/12/14 03:19:05;;;;;;;9.60;6.47;;;;;;;;;;5079989;28;20479;-72
2023/12/14 03:21:31;;;;;;;12.05;6.47;;;;;;;;;;5053656;28;20044;-72
2023/12/14 03:23:57;;;;;;;10.82;5.90;;;;;;;;;;5069836;28;20048;-72
2023/12/14 03:26:23;;;;;;;10.88;6.32;;;;;;;;;;5082716;28;20040;-71
2023/12/14 03:28:49;;;;;;;9.75;6.57;;;;;;;;;;5090275;28;20051;-71
2023/12/14 03:31:16;;;;;;;11.68;6.63;;;;;;;;;;5089937;28;20043;-71
2023/12/14 03:33:43;;;;;;;11.20;6.38;;;;;;;;;;5090237;28;20047;-71
2023/12/14 03:36:09;;;;;;;11.77;6.90;;;;;;;;;;5090219;28;20393;-71
2023/12/14 03:38:35;;;;;;;12.20;6.50;;;;;;;;;;5089952;28;20083;-71
2023/12/14 03:41:01;;;;;;;11.38;6.78;;;;;;;;;;5090358;28;20128;-72
2023/12/14 03:43:27;;;;;;;12.73;7.85;;;;;;;;;;5090424;28;20036;-72
2023/12/14 03:45:53;;;;;;;16.10;7.90;;;;;;;;;;5089628;28;20036;-72
2023/12/14 03:48:19;;;;;;;12.82;7.72;;;;;;;;;;5089863;28;20040;-72
2023/12/14 03:50:45;;;;;;;14.85;8.05;;;;;;;;;;5090039;28;20537;-72
2023/12/14 03:53:11;;;;;;;17.80;8.88;;;;;;;;;;5089612;28;20437;-72
2023/12/14 03:55:37;;;;;;;16.08;8.07;;;;;;;;;;5090224;28;20097;-72
2023/12/14 03:58:03;;;;;;;18.17;9.02;;;;;;;;;;5089555;28;20552;-72
2023/12/14 04:00:29;;;;;;;12.90;8.13;;;;;;;;;;5089537;28;20119;-72
2023/12/14 04:02:55;;;;;;;15.45;9.00;;;;;;;;;;5089851;28;20031;-72
2023/12/14 04:05:22;;;;;;;14.00;8.75;;;;;;;;;;5072961;28;20398;-72
2023/12/14 04:07:48;;;;;;;22.95;9.70;;;;;;;;;;5089340;28;20032;-72
2023/12/14 04:10:14;;;;;;;14.90;8.38;;;;;;;;;;5089655;28;20048;-72
2023/12/14 04:12:40;;;;;;;17.35;8.60;;;;;;;;;;5092293;28;20047;-72
2023/12/14 04:15:07;;;;;;;18.67;8.25;;;;;;;;;;5096021;28;20032;-72
2023/12/14 04:17:33;;;;;;;14.32;8.20;;;;;;;;;;5096420;28;20397;-72
2023/12/14 04:20:00;;;;;;;16.67;9.60;;;;;;;;;;5078175;28;20097;-72
2023/12/14 04:22:27;;;;;;;14.90;8.70;;;;;;;;;;5077255;28;20148;-72
2023/12/14 04:24:53;;;;;;;15.40;8.95;;;;;;;;;;5076274;28;20044;-72
2023/12/14 04:27:20;;;;;;;18.13;8.63;;;;;;;;;;5096390;28;20083;-72
2023/12/14 04:29:46;;;;;;;14.23;7.78;;;;;;;;;;5095718;28;20048;-72
2023/12/14 04:32:12;;;;;;;15.77;8.52;;;;;;;;;;5096565;28;20043;-72
2023/12/14 04:34:38;;;;;;;14.43;8.23;;;;;;;;;;5096294;28;20117;-72
2023/12/14 04:37:04;;;;;;;14.43;8.60;;;;;;;;;;5096079;28;20036;-72
2023/12/14 04:39:30;;;;;;;17.63;8.10;;;;;;;;;;5096338;28;20383;-72
2023/12/14 04:41:56;;;;;;;15.68;7.55;;;;;;;;;;5096238;28;20496;-72
2023/12/14 04:44:22;;;;;;;16.92;9.07;;;;;;;;;;5095829;28;20055;-72
2023/12/14 04:46:49;;;;;;;14.15;8.25;;;;;;;;;;5079404;28;20048;-72
2023/12/14 04:49:15;;;;;;;15.50;7.95;;;;;;;;;;5095970;28;20125;-72
2023/12/14 04:51:41;;;;;;;14.25;8.10;;;;;;;;;;5095779;28;20379;-72
2023/12/14 04:54:08;;;;;;;11.88;7.78;;;;;;;;;;5096334;28;20398;-72
2023/12/14 04:56:34;;;;;;;15.95;8.38;;;;;;;;;;5096277;28;20044;-72
2023/12/14 04:59:01;;;;;;;15.38;7.90;;;;;;;;;;5095592;28;20083;-72
2023/12/14 05:01:27;;;;;;;16.70;9.02;;;;;;;;;;5095882;28;20036;-72
2023/12/14 05:03:56;;;;;;;19.23;9.55;;;;;;;;;;5096091;28;20050;-72
2023/12/14 05:06:22;;;;;;;16.20;8.32;;;;;;;;;;5096841;28;20044;-72
2023/12/14 05:08:48;;;;;;;15.60;8.30;;;;;;;;;;5095942;28;20139;-72
2023/12/14 05:11:14;;;;;;;15.23;8.48;;;;;;;;;;5095966;28;20406;-72
2023/12/14 05:13:41;;;;;;;16.20;7.97;;;;;;;;;;5095754;28;20032;-72
2023/12/14 05:16:07;;;;;;;15.52;8.52;;;;;;;;;;5079248;28;20061;-72
2023/12/14 05:18:33;;;;;;;17.75;9.23;;;;;;;;;;5072647;28;20043;-72
2023/12/14 05:21:00;;;;;;;16.70;8.63;;;;;;;;;;5075099;28;20040;-72
2023/12/14 05:23:26;;;;;;;17.92;8.02;;;;;;;;;;5075275;28;20093;-72
2023/12/14 05:25:52;;;;;;;18.50;8.57;;;;;;;;;;5079729;28;20048;-72
2023/12/14 05:28:18;;;;;;;15.77;8.48;;;;;;;;;;5092192;28;20043;-72
2023/12/14 05:30:44;;;;;;;12.18;7.80;;;;;;;;;;5092529;28;20082;-72
2023/12/14 05:33:10;;;;;;;12.93;7.47;;;;;;;;;;5092796;28;20458;-72
2023/12/14 05:35:36;;;;;;;16.73;7.90;;;;;;;;;;5092283;28;20040;-72
2023/12/14 05:38:02;;;;;;;14.23;7.82;;;;;;;;;;5092668;28;20043;-72
2023/12/14 05:40:28;;;;;;;14.35;8.32;;;;;;;;;;5092643;28;20047;-72
2023/12/14 05:42:54;;;;;;;14.52;7.75;;;;;;;;;;5091995;28;20032;-72
2023/12/14 05:45:21;;;;;;;13.80;7.95;;;;;;;;;;5075295;28;20039;-72
2023/12/14 05:47:47;;;;;;;12.65;7.70;;;;;;;;;;5092483;28;20046;-72
2023/12/14 05:50:13;;;;;;;13.75;7.72;;;;;;;;;;5093125;28;20098;-72
2023/12/14 05:52:40;;;;;;;13.23;6.90;;;;;;;;;;5092193;28;20150;-72
2023/12/14 05:55:09;;;;;;;15.48;7.60;;;;;;;;;;5092155;28;20360;-72
2023/12/14 05:57:36;;;;;;;13.13;7.80;;;;;;;;;;5091639;28;20425;-72
2023/12/14 06:00:03;;;;;;;13.35;8.00;;;;;;;;;;5091966;28;20068;-72
2023/12/14 06:02:31;;;;;;;14.00;7.35;;;;;;;;;;5075488;28;20040;-72
2023/12/14 06:04:57;;;;;;;13.07;7.75;;;;;;;;;;5093015;28;20536;-72
2023/12/14 06:07:24;;;;;;;14.77;7.78;;;;;;;;;;5092137;28;20487;-72
2023/12/14 06:09:50;;;;;;;15.80;7.35;;;;;;;;;;5091616;28;20082;-72
2023/12/14 06:12:16;;;;;;;13.88;7.40;;;;;;;;;;5091523;28;20438;-72
2023/12/14 06:14:42;;;;;;;15.20;7.45;;;;;;;;;;5092015;28;20054;-72
2023/12/14 06:17:08;;;;;;;12.05;7.13;;;;;;;;;;5091790;28;20036;-72
2023/12/14 06:19:34;;;;;;;17.58;8.52;;;;;;;;;;5077046;28;20090;-72
2023/12/14 06:22:00;;;;;;;13.30;8.15;;;;;;;;;;5071035;28;20586;-72
2023/12/14 06:24:26;;;;;;;16.02;9.10;;;;;;;;;;5071223;28;20048;-72
2023/12/14 06:26:52;;;;;;;16.10;7.85;;;;;;;;;;5087860;28;20071;-72
2023/12/14 06:29:18;;;;;;;15.48;8.05;;;;;;;;;;5074236;28;20044;-72
2023/12/14 06:31:46;;;;;;;14.30;9.07;;;;;;;;;;5091545;28;20044;-72
2023/12/14 06:34:12;;;;;;;14.15;9.10;;;;;;;;;;5074559;28;20036;-72
2023/12/14 06:36:42;;;;;;;16.83;8.45;;;;;;;;;;5090615;28;20104;-71
2023/12/14 06:39:08;;;;;;;13.27;8.15;;;;;;;;;;5091474;28;20127;-72
2023/12/14 06:41:34;;;;;;;13.70;8.38;;;;;;;;;;5091555;28;20035;-71
2023/12/14 06:44:00;;;;;;;19.83;9.02;;;;;;;;;;5091851;28;20728;-73
2023/12/14 06:46:27;;;;;;;14.20;7.90;;;;;;;;;;5093949;28;20044;-71
2023/12/14 06:48:53;;;;;;;12.30;7.60;;;;;;;;;;5076057;28;20142;-72
2023/12/14 06:51:20;;;;;;;16.20;7.18;;;;;;;;;;5074282;28;20717;-72
2023/12/14 06:53:47;;;;;;;12.65;7.78;;;;;;;;;;5091262;28;20046;-71
2023/12/14 06:56:13;;;;;;;12.73;8.23;;;;;;;;;;5090908;28;20074;-71
2023/12/14 06:58:40;;;;;;;13.40;7.25;;;;;;;;;;5091499;28;20060;-72
2023/12/14 07:01:06;;;;;;;12.55;7.10;;;;;;;;;;5071327;28;20131;-71
2023/12/14 07:03:33;;;;;;;16.67;8.77;;;;;;;;;;5090258;28;20144;-70
2023/12/14 07:05:59;;;;;;;17.83;8.70;;;;;;;;;;5097179;28;20052;-70
2023/12/14 07:08:27;;;;;;;13.32;8.02;;;;;;;;;;5099384;28;20036;-70
2023/12/14 07:10:53;;;;;;;12.55;7.80;;;;;;;;;;5099986;28;20040;-70
2023/12/14 07:13:20;;;;;;;18.00;8.82;;;;;;;;;;5098917;28;20142;-70
2023/12/14 07:15:46;;;;;;;15.13;8.93;;;;;;;;;;5096387;28;20096;-70
2023/12/14 07:18:13;;;;;;;14.73;8.02;;;;;;;;;;5093266;28;20134;-70
2023/12/14 07:20:41;;;;;;;14.10;8.45;;;;;;;;;;5095265;28;20047;-71
2023/12/14 07:23:07;;;;;;;13.55;9.00;;;;;;;;;;5091866;28;20035;-71
2023/12/14 07:25:33;;;;;;;14.27;8.18;;;;;;;;;;5090501;28;20548;-71
2023/12/14 07:27:59;;;;;;;14.38;8.38;;;;;;;;;;5061421;28;20040;-71
2023/12/14 07:30:25;;;;;;;15.40;8.48;;;;;;;;;;5087272;28;20048;-70
2023/12/14 07:32:52;;;;;;;16.30;8.18;;;;;;;;;;5092108;28;20036;-71
2023/12/14 07:35:19;;;;;;;12.40;8.27;;;;;;;;;;5092495;28;20498;-71
2023/12/14 07:37:45;;;;;;;15.10;9.02;;;;;;;;;;5093827;28;20059;-72
2023/12/14 07:40:11;;;;;;;13.68;8.63;;;;;;;;;;5095643;28;20539;-70
2023/12/14 07:42:39;;;;;;;15.25;9.13;;;;;;;;;;5090520;28;20127;-70
2023/12/14 07:45:06;;;;;;;17.10;9.57;;;;;;;;;;5090259;28;20055;-71
2023/12/14 07:47:32;;;;;;;16.13;9.35;;;;;;;;;;5089537;28;20097;-71
2023/12/14 07:49:58;;;;;;;17.38;9.90;;;;;;;;;;5092900;28;20043;-70
2023/12/14 07:52:24;;;;;;;12.98;8.75;;;;;;;;;;5094680;28;20781;-71
2023/12/14 07:54:50;;;;;;;17.38;9.23;;;;;;;;;;5094674;28;20505;-72
2023/12/14 07:57:17;;;;;;;14.73;10.07;;;;;;;;;;5090278;28;20044;-72
2023/12/14 07:59:43;;;;;;;17.58;10.55;;;;;;;;;;5073044;28;20048;-73
2023/12/14 08:02:09;;;;;;;16.70;9.75;;;;;;;;;;5092569;28;20040;-70
2023/12/14 08:04:35;;;;;;;16.08;9.68;;;;;;;;;;5090352;28;20039;-71
2023/12/14 08:07:01;;;;;;;21.10;10.15;;;;;;;;;;5080475;28;20061;-71
2023/12/14 08:09:27;;;;;;;15.77;9.50;;;;;;;;;;5085765;28;20478;-70
2023/12/14 08:11:56;;;;;;;18.40;9.90;;;;;;;;;;5090586;28;20462;-71
2023/12/14 08:14:22;;;;;;;13.77;9.40;;;;;;;;;;5080934;28;20128;-71
2023/12/14 08:16:48;;;;;;;18.05;9.88;;;;;;;;;;5089445;28;20771;-71
2023/12/14 08:19:14;;;;;;;16.73;9.57;;;;;;;;;;5085763;28;20796;-71
2023/12/14 08:21:41;;;;;;;13.88;9.55;;;;;;;;;;5089561;28;20473;-72
2023/12/14 08:24:07;;;;;;;18.98;9.52;;;;;;;;;;5082872;28;20032;-71
2023/12/14 08:26:33;;;;;;;22.55;10.30;;;;;;;;;;5076590;28;20049;-72
2023/12/14 08:28:59;;;;;;;14.32;9.10;;;;;;;;;;5086384;28;20036;-72
2023/12/14 08:31:26;;;;;;;18.70;10.40;;;;;;;;;;5084649;28;20044;-72
2023/12/14 08:33:52;;;;;;;16.23;9.63;;;;;;;;;;5080795;28;20726;-71
2023/12/14 08:36:18;;;;;;;17.58;10.10;;;;;;;;;;5085628;28;20040;-70
2023/12/14 08:38:44;;;;;;;15.85;10.32;;;;;;;;;;5084375;28;20043;-71
2023/12/14 08:41:14;;;;;;;17.40;10.15;;;;;;;;;;5081179;28;21351;-71
2023/12/14 08:43:40;;;;;;;16.08;10.13;;;;;;;;;;5088671;28;20040;-72
2023/12/14 08:46:06;;;;;;;15.77;9.63;;;;;;;;;;5084500;28;20059;-72
2023/12/14 08:48:33;;;;;;;19.23;9.88;;;;;;;;;;5076763;28;20135;-72
2023/12/14 08:50:59;;;;;;;19.23;10.05;;;;;;;;;;5070745;28;20040;-72
2023/12/14 08:53:25;;;;;;;20.25;10.07;;;;;;;;;;5080859;28;20036;-71
2023/12/14 08:55:51;;;;;;;19.65;10.50;;;;;;;;;;5088173;28;20031;-71
2023/12/14 08:58:17;;;;;;;26.60;11.20;;;;;;;;;;5078236;28;20203;-71
2023/12/14 09:00:45;;;;;;;20.27;10.00;;;;;;;;;;5078725;28;20882;-70
2023/12/14 09:03:11;;;;;;;20.55;10.32;;;;;;;;;;5080759;28;20044;-70
2023/12/14 09:05:37;;;;;;;24.60;10.45;;;;;;;;;;5088827;28;20098;-70
2023/12/14 09:08:03;;;;;;;21.75;10.18;;;;;;;;;;5091505;28;20426;-71
2023/12/14 09:10:29;;;;;;;19.33;10.25;;;;;;;;;;5085543;28;20490;-70
2023/12/14 09:12:56;;;;;;;20.65;10.63;;;;;;;;;;5096576;28;20031;-70
2023/12/14 09:15:23;;;;;;;22.65;11.25;;;;;;;;;;5091537;28;20051;-71
2023/12/14 09:17:49;;;;;;;20.30;10.48;;;;;;;;;;5092391;28;20512;-71
2023/12/14 09:20:15;;;;;;;24.65;11.50;;;;;;;;;;5087438;28;20447;-71
2023/12/14 09:22:41;;;;;;;30.60;11.20;;;;;;;;;;5082321;28;20039;-72
2023/12/14 09:25:09;;;;;;;21.75;10.75;;;;;;;;;;5072707;28;20059;-72
2023/12/14 09:27:35;;;;;;;21.27;10.48;;;;;;;;;;5081113;28;20071;-72
2023/12/14 09:30:01;;;;;;;26.65;11.25;;;;;;;;;;5087089;28;20047;-72
2023/12/14 09:32:27;;;;;;;24.92;10.82;;;;;;;;;;5085113;28;20086;-71
2023/12/14 09:34:56;;;;;;;23.48;10.88;;;;;;;;;;5071092;28;20084;-71
2023/12/14 09:37:22;;;;;;;26.30;12.00;;;;;;;;;;5073092;28;20058;-72
2023/12/14 09:39:48;;;;;;;20.73;10.65;;;;;;;;;;5081321;28;20067;-72
2023/12/14 09:42:16;;;;;;;23.65;11.05;;;;;;;;;;5081309;28;20481;-72
2023/12/14 09:44:43;;;;;;;24.27;10.55;;;;;;;;;;5077512;28;20079;-72
2023/12/14 09:47:09;;;;;;;24.17;10.60;;;;;;;;;;5081724;28;20505;-73
2023/12/14 09:49:36;;;;;;;27.67;11.63;;;;;;;;;;5080245;28;20522;-71
2023/12/14 09:52:02;;;;;;;23.00;11.20;;;;;;;;;;5075422;28;20102;-71
2023/12/14 09:54:28;;;;;;;28.63;12.25;;;;;;;;;;5077114;28;20047;-71
2023/12/14 09:56:55;;;;;;;24.85;11.27;;;;;;;;;;5085019;28;20494;-71
2023/12/14 09:59:21;;;;;;;21.55;11.40;;;;;;;;;;5079016;28;20114;-71
2023/12/14 10:01:48;;;;;;;24.35;11.10;;;;;;;;;;5078666;28;20056;-71
2023/12/14 10:04:15;;;;;;;22.08;10.73;;;;;;;;;;5081821;28;20521;-71
2023/12/14 10:06:42;;;;;;;21.13;10.63;;;;;;;;;;5088990;28;20070;-71
2023/12/14 10:09:18;;;;;;;23.02;11.40;;;;;;;;;;5091110;28;20066;-71
2023/12/14 10:11:44;;;;;;;24.30;11.70;;;;;;;;;;5077091;28;20036;-71
2023/12/14 10:14:20;;;;;;;23.70;10.57;;;;;;;;;;5074712;28;20036;-71
2023/12/14 10:16:47;;;;;;;19.75;10.50;;;;;;;;;;5063367;28;20107;-71
2023/12/14 10:19:13;;;;;;;20.10;11.02;;;;;;;;;;5080678;28;20048;-71
2023/12/14 10:21:40;;;;;;;24.92;11.13;;;;;;;;;;5073882;28;20066;-72
2023/12/14 10:24:06;;;;;;;22.67;10.93;;;;;;;;;;5084590;28;20047;-71
2023/12/14 10:26:33;;;;;;;23.13;11.20;;;;;;;;;;5077673;28;20046;-70
2023/12/14 10:28:59;;;;;;;23.67;10.98;;;;;;;;;;5082870;28;20663;-73
2023/12/14 10:31:25;;;;;;;22.10;11.10;;;;;;;;;;5075443;28;20048;-71
2023/12/14 10:33:53;;;;;;;21.65;11.60;;;;;;;;;;5073362;28;20040;-70
2023/12/14 10:36:24;;;;;;;23.45;10.85;;;;;;;;;;5071386;28;20040;-71
2023/12/14 10:38:54;;;;;;;21.73;10.30;;;;;;;;;;5072809;28;20035;-71
2023/12/14 10:41:22;;;;;;;20.70;10.48;;;;;;;;;;5080880;28;20098;-70
2023/12/14 10:43:49;;;;;;;25.15;11.25;;;;;;;;;;5086635;28;20062;-72
2023/12/14 10:46:16;;;;;;;20.13;10.60;;;;;;;;;;5083263;28;20101;-71
2023/12/14 10:48:45;;;;;;;19.67;10.82;;;;;;;;;;5074846;28;20140;-71
2023/12/14 10:51:15;;;;;;;18.35;9.60;;;;;;;;;;5074059;28;20433;-71
2023/12/14 10:53:46;;;;;;;21.13;10.13;;;;;;;;;;5074445;28;20044;-71
2023/12/14 10:56:12;;;;;;;22.40;10.17;;;;;;;;;;5079834;28;20052;-72
2023/12/14 10:59:08;;;;;;;18.73;9.68;;;;;;;;;;5054033;28;20056;-72
2023/12/14 11:01:36;;;;;;;21.48;10.43;;;;;;;;;;5073421;28;20048;-71
2023/12/14 11:04:02;;;;;;;22.60;9.85;;;;;;;;;;5070580;28;20048;-72
2023/12/14 11:06:33;;;;;;;17.13;9.25;;;;;;;;;;5068837;28;20163;-71
2023/12/14 11:09:05;;;;;;;21.55;10.23;;;;;;;;;;5081232;28;20040;-72
2023/12/14 11:11:40;;;;;;;17.17;9.85;;;;;;;;;;5078900;28;20114;-71
2023/12/14 11:14:08;;;;;;;19.50;9.38;;;;;;;;;;5082640;28;20032;-71
2023/12/14 11:16:34;;;;;;;20.85;9.75;;;;;;;;;;5088704;28;20494;-71
2023/12/14 11:19:33;;;;;;;16.90;9.60;;;;;;;;;;5080291;28;20075;-70
2023/12/14 11:22:08;;;;;;;20.83;9.95;;;;;;;;;;5073535;28;20067;-70
2023/12/14 11:24:37;;;;;;;18.02;9.98;;;;;;;;;;5074696;28;20425;-70
2023/12/14 11:27:07;;;;;;;16.75;10.00;;;;;;;;;;5074731;28;20036;-70
2023/12/14 11:29:33;;;;;;;17.13;8.75;;;;;;;;;;5070415;28;20050;-71
2023/12/14 11:31:59;;;;;;;19.85;10.23;;;;;;;;;;5073069;28;20089;-72
2023/12/14 11:34:25;;;;;;;18.95;9.57;;;;;;;;;;5085738;28;20040;-72
2023/12/14 11:36:51;;;;;;;16.27;9.65;;;;;;;;;;5085813;28;20035;-72
2023/12/14 11:39:17;;;;;;;18.38;9.43;;;;;;;;;;5087428;28;20040;-72
2023/12/14 11:41:58;;;;;;;19.85;9.55;;;;;;;;;;5088562;28;20517;-72
2023/12/14 11:44:25;;;;;;;20.50;9.88;;;;;;;;;;5088741;28;20048;-72
2023/12/14 11:46:51;;;;;;;18.30;9.48;;;;;;;;;;5088903;28;20525;-71
2023/12/14 11:49:17;;;;;;;16.05;9.43;;;;;;;;;;5086834;28;20044;-71
2023/12/14 11:51:46;;;;;;;18.25;9.60;;;;;;;;;;5089236;28;20036;-71
2023/12/14 11:54:13;;;;;;;16.50;9.70;;;;;;;;;;5088759;28;20536;-71
2023/12/14 11:56:39;;;;;;;19.48;9.63;;;;;;;;;;5088822;28;20032;-71
2023/12/14 11:59:05;;;;;;;17.52;9.27;;;;;;;;;;5080680;28;20178;-71
2023/12/14 12:01:33;;;;;;;15.57;9.02;;;;;;;;;;5066518;28;20062;-71
2023/12/14 12:04:08;;;;;;;16.58;8.38;;;;;;;;;;5071165;28;20072;-71
2023/12/14 12:06:34;;;;;;;15.35;8.85;;;;;;;;;;5069099;28;20502;-71
2023/12/14 12:09:00;;;;;;;16.65;9.25;;;;;;;;;;5076273;28;20494;-72
2023/12/14 12:11:27;;;;;;;25.42;10.98;;;;;;;;;;5078618;28;20051;-73
2023/12/14 12:13:57;;;;;;;19.00;10.35;;;;;;;;;;5078461;28;20048;-72
2023/12/14 12:16:23;;;;;;;27.95;15.55;;;;;;;;;;5083030;28;20073;-73
2023/12/14 12:18:52;;;;;;;20.80;11.73;;;;;;;;;;5078922;28;20045;-73
2023/12/14 12:21:19;;;;;;;19.73;11.48;;;;;;;;;;5079030;28;20047;-72
2023/12/14 12:23:45;;;;;;;16.30;9.55;;;;;;;;;;5087914;28;20081;-72
2023/12/14 12:26:11;;;;;;;16.27;9.38;;;;;;;;;;5079334;28;20455;-73
2023/12/14 12:28:37;;;;;;;16.20;9.55;;;;;;;;;;5076322;28;20052;-72
2023/12/14 12:31:04;;;;;;;15.98;9.43;;;;;;;;;;5072183;28;20052;-73
2023/12/14 12:33:31;;;;;;;17.80;9.55;;;;;;;;;;5081670;28;20674;-72
2023/12/14 12:35:57;;;;;;;17.45;9.18;;;;;;;;;;5084489;28;20036;-72
2023/12/14 12:38:23;;;;;;;18.67;9.93;;;;;;;;;;5083138;28;20593;-71
2023/12/14 12:40:49;;;;;;;18.38;10.68;;;;;;;;;;5081590;28;20618;-71
2023/12/14 12:43:15;;;;;;;16.80;9.95;;;;;;;;;;5092121;28;20028;-72
2023/12/14 12:45:41;;;;;;;17.52;9.85;;;;;;;;;;5084009;28;20063;-71
2023/12/14 12:48:08;;;;;;;19.17;10.27;;;;;;;;;;5076358;28;20040;-72
2023/12/14 12:50:35;;;;;;;17.95;9.50;;;;;;;;;;5092624;28;20119;-73
2023/12/14 12:53:01;;;;;;;17.48;9.30;;;;;;;;;;5097658;28;20470;-71
2023/12/14 12:55:27;;;;;;;15.52;9.80;;;;;;;;;;5084630;28;20109;-72
2023/12/14 12:57:53;;;;;;;17.05;9.70;;;;;;;;;;5092434;28;20064;-72
2023/12/14 13:00:20;;;;;;;16.45;9.73;;;;;;;;;;5075273;28;20044;-73
2023/12/14 13:02:47;;;;;;;15.02;8.93;;;;;;;;;;5077714;28;20047;-73
2023/12/14 13:05:13;;;;;;;17.35;9.27;;;;;;;;;;5082029;28;20143;-74
2023/12/14 13:07:39;;;;;;;17.65;9.68;;;;;;;;;;5077257;28;20572;-72
2023/12/14 13:10:07;;;;;;;17.77;10.50;;;;;;;;;;5073202;28;20128;-71
2023/12/14 13:12:38;;;;;;;17.75;9.90;;;;;;;;;;5085607;28;20036;-71
2023/12/14 13:15:05;;;;;;;17.95;9.63;;;;;;;;;;5083782;28;20094;-72
2023/12/14 13:17:31;;;;;;;20.45;10.98;;;;;;;;;;5081857;28;20740;-69
2023/12/14 13:19:58;;;;;;;19.63;9.70;;;;;;;;;;5082262;28;20080;-72
2023/12/14 13:22:25;;;;;;;17.60;10.00;;;;;;;;;;5093662;28;20048;-72
2023/12/14 13:24:51;;;;;;;16.38;9.35;;;;;;;;;;5063389;28;20040;-72
2023/12/14 13:30:17;;;;;;;17.25;9.93;;;;;;;;;;5151307;23;20054;-72
2023/12/14 13:32:45;;;;;;;18.20;10.13;;;;;;;;;;4994013;28;20048;-73
2023/12/14 13:35:11;;;;;;;16.20;10.15;;;;;;;;;;4996508;28;20039;-73
2023/12/14 13:37:38;;;;;;;19.92;11.40;;;;;;;;;;5001013;28;20049;-71
2023/12/14 13:40:04;;;;;;;17.95;10.77;;;;;;;;;;5001276;28;20380;-70
2023/12/14 13:42:30;;;;;;;17.92;10.07;;;;;;;;;;5013928;28;20400;-72
2023/12/14 13:44:56;;;;;;;17.85;10.07;;;;;;;;;;5004931;28;20047;-73
2023/12/14 13:47:23;;;;;;;18.55;10.32;;;;;;;;;;5004191;28;20046;-71
2023/12/14 13:49:50;;;;;;;17.92;9.82;;;;;;;;;;4991818;28;20073;-71
2023/12/14 13:52:16;;;;;;;18.55;10.05;;;;;;;;;;5012095;28;20049;-71
2023/12/14 13:54:42;;;;;;;15.88;10.13;;;;;;;;;;5010198;28;20042;-71
2023/12/14 13:57:08;;;;;;;18.50;10.38;;;;;;;;;;5023416;28;20041;-72
2023/12/14 13:59:34;;;;;;;19.17;10.95;;;;;;;;;;5019886;28;20049;-71
2023/12/14 14:02:01;;;;;;;17.80;10.20;;;;;;;;;;5001199;28;20078;-72
2023/12/14 14:04:27;;;;;;;20.98;10.70;;;;;;;;;;4999490;28;20425;-70
2023/12/14 14:06:53;;;;;;;17.75;10.30;;;;;;;;;;4998846;28;20085;-72
2023/12/14 14:09:19;;;;;;;21.30;10.18;;;;;;;;;;4998972;28;20070;-71
2023/12/14 14:11:48;;;;;;;15.55;9.65;;;;;;;;;;4998521;28;20043;-72
2023/12/14 14:14:15;;;;;;;14.85;9.60;;;;;;;;;;4995701;28;20046;-71
2023/12/14 14:16:41;;;;;;;18.60;10.10;;;;;;;;;;5018198;28;20069;-70
2023/12/14 14:19:07;;;;;;;16.27;9.90;;;;;;;;;;4999072;28;20378;-71
2023/12/14 14:21:38;;;;;;;19.70;11.15;;;;;;;;;;5000410;28;20101;-71
2023/12/14 14:24:05;;;;;;;15.88;10.70;;;;;;;;;;4988638;28;20036;-72
2023/12/14 14:26:37;;;;;;;21.65;10.45;;;;;;;;;;4999523;28;20428;-73
2023/12/14 14:29:03;;;;;;;18.20;10.63;;;;;;;;;;4993429;28;20082;-72